Terminal Aerodrome Forecast
Issued by NWS

Home | Current Version | Previous Version | Graphics & Text | Print | Product List | Glossary On
Versions: 1 2 3 4 5 6 7 8 9 10 11 12 13 14 15 16
000
FTUS43 KIWX 251400 AAA
TAFSBN
TAF AMD
KSBN 251417Z 2514/2612 07012KT 2SM -RASN OVC006
     FM251900 07016G24KT 3SM -SN BR OVC006
     FM260000 04018G24KT P6SM -SN OVC015
     FM260300 03006KT P6SM SCT015 BKN035=

USA.gov is the U.S. government's official web portal to all federal, state and local government web resources and services.